Time;durP1;ratioP1;P1;durP2;ratioP2;P2;SDS_P1;SDS_P2;PMS_P1;PMS_P2;Temp;Humidity;BMP_temperature;BMP_pressure;BME280_temperature;BME280_humidity;BME280_pressure;Samples;Min_cycle;Max_cycle;Signal;HPM_P1;HPM_P2
2023/05/25 00:01:37;;;;;;;12.20;8.90;;;;;;;13.84;100.00;100714.85;105580;1261;72268;-45
2023/05/25 00:04:05;;;;;;;12.50;8.20;;;;;;;13.82;100.00;100717.65;105568;1260;64044;-45
2023/05/25 00:06:36;;;;;;;14.50;8.60;;;;;;;13.80;100.00;100719.98;105532;1260;71362;-45
2023/05/25 00:09:03;;;;;;;19.00;9.50;;;;;;;13.78;100.00;100721.06;105643;1257;60093;-44
2023/05/25 00:11:31;;;;;;;10.10;8.50;;;;;;;13.78;100.00;100722.98;105610;1255;59605;-44
2023/05/25 00:13:59;;;;;;;14.30;8.90;;;;;;;13.79;100.00;100723.98;105562;1258;71819;-45
2023/05/25 00:16:27;;;;;;;16.70;9.90;;;;;;;13.80;100.00;100721.72;105636;1262;63045;-46
2023/05/25 00:18:56;;;;;;;14.50;9.70;;;;;;;13.82;100.00;100716.98;105565;1260;71453;-45
2023/05/25 00:21:24;;;;;;;15.40;10.10;;;;;;;13.84;100.00;100715.38;105616;1257;60379;-45
2023/05/25 00:23:52;;;;;;;14.50;8.80;;;;;;;13.84;100.00;100716.38;105628;1257;59729;-44
2023/05/25 00:26:20;;;;;;;12.20;8.90;;;;;;;13.84;100.00;100715.71;105582;1261;72996;-44
2023/05/25 00:28:47;;;;;;;17.50;9.30;;;;;;;13.82;100.00;100723.56;105563;1260;65186;-46
2023/05/25 00:31:16;;;;;;;14.60;9.30;;;;;;;13.81;100.00;100727.77;105472;1257;72619;-45
2023/05/25 00:33:44;;;;;;;10.40;9.10;;;;;;;13.81;100.00;100726.20;105548;1263;62107;-46
2023/05/25 00:36:12;;;;;;;11.60;10.00;;;;;;;13.80;100.00;100725.36;105622;1260;59622;-45
2023/05/25 00:38:42;;;;;;;18.10;10.10;;;;;;;13.78;100.00;100723.33;105620;1260;73078;-46
2023/05/25 00:41:11;;;;;;;18.90;10.60;;;;;;;13.77;100.00;100724.56;105612;1255;63351;-45
2023/05/25 00:43:39;;;;;;;18.80;11.10;;;;;;;13.77;100.00;100726.99;105572;1262;71433;-46
2023/05/25 00:46:08;;;;;;;14.10;10.70;;;;;;;13.76;100.00;100725.98;105594;1263;60506;-43
2023/05/25 00:48:37;;;;;;;13.90;10.30;;;;;;;13.76;100.00;100725.45;105453;1258;60045;-45
2023/05/25 00:51:05;;;;;;;18.20;11.00;;;;;;;13.77;100.00;100726.98;105333;1264;72176;-44
2023/05/25 00:53:32;;;;;;;16.30;10.50;;;;;;;13.79;100.00;100725.72;105588;1258;64077;-44
2023/05/25 00:56:22;;;;;;;17.10;10.50;;;;;;;13.82;100.00;100722.19;105503;1262;72696;-45
2023/05/25 00:58:52;;;;;;;15.60;10.40;;;;;;;13.86;100.00;100725.02;105563;1260;61566;-45
2023/05/25 01:01:21;;;;;;;13.90;10.20;;;;;;;13.88;100.00;100725.65;105563;1257;59979;-45
2023/05/25 01:03:52;;;;;;;16.90;10.90;;;;;;;13.89;100.00;100727.52;105618;1256;71723;-46
2023/05/25 01:06:21;;;;;;;14.40;9.80;;;;;;;13.89;100.00;100727.88;105486;1262;65148;-45
2023/05/25 01:08:52;;;;;;;16.00;11.10;;;;;;;13.92;100.00;100726.40;105587;1260;72703;-46
2023/05/25 01:11:21;;;;;;;16.90;11.00;;;;;;;13.94;100.00;100733.45;105604;1257;61632;-46
2023/05/25 01:13:53;;;;;;;17.70;11.40;;;;;;;13.95;100.00;100727.88;105589;1257;59633;-45
2023/05/25 01:16:20;;;;;;;14.20;11.10;;;;;;;13.96;100.00;100725.95;105575;1264;73048;-45
2023/05/25 01:18:51;;;;;;;14.50;10.30;;;;;;;13.96;100.00;100724.05;105539;1262;63894;-45
2023/05/25 01:21:44;;;;;;;17.20;10.00;;;;;;;13.95;100.00;100720.23;105537;1260;71375;-45
2023/05/25 01:24:21;;;;;;;18.70;10.80;;;;;;;13.93;100.00;100717.87;105564;1260;61725;-45
2023/05/25 01:27:08;;;;;;;22.50;11.30;;;;;;;13.92;100.00;100718.26;105517;1257;60105;-45
2023/05/25 01:29:36;;;;;;;17.30;11.50;;;;;;;13.89;100.00;100722.66;105487;1256;72162;-46
2023/05/25 01:32:04;;;;;;;15.70;11.60;;;;;;;13.87;100.00;100720.45;105550;1260;64175;-45
2023/05/25 01:34:33;;;;;;;17.40;11.20;;;;;;;13.88;100.00;100723.58;105535;1257;72596;-46
2023/05/25 01:37:01;;;;;;;17.40;10.70;;;;;;;13.88;100.00;100719.75;105554;1256;60676;-47
2023/05/25 01:39:28;;;;;;;23.10;11.90;;;;;;;13.88;100.00;100725.80;105458;1264;59632;-45
2023/05/25 01:41:57;;;;;;;21.30;11.90;;;;;;;13.89;100.00;100722.34;105519;1260;72135;-44
2023/05/25 01:44:25;;;;;;;20.60;10.60;;;;;;;13.89;100.00;100723.54;105556;1255;63923;-44
2023/05/25 01:46:58;;;;;;;33.30;11.80;;;;;;;13.90;100.00;100725.77;105626;1260;71339;-44
2023/05/25 01:49:31;;;;;;;18.50;11.80;;;;;;;13.90;100.00;100725.25;105566;1260;60467;-46
2023/05/25 01:52:18;;;;;;;19.10;11.70;;;;;;;13.89;100.00;100725.27;105619;1260;59933;-45
2023/05/25 01:54:49;;;;;;;19.20;12.20;;;;;;;13.89;100.00;100720.41;105667;1260;72968;-44
2023/05/25 01:57:18;;;;;;;23.90;12.60;;;;;;;13.89;100.00;100715.74;105629;1254;63207;-44
2023/05/25 01:59:47;;;;;;;15.50;11.50;;;;;;;13.87;100.00;100713.17;105649;1260;72453;-45
2023/05/25 02:02:16;;;;;;;13.80;11.30;;;;;;;13.86;100.00;100717.20;105477;1261;61640;-45
2023/05/25 02:04:44;;;;;;;18.20;11.70;;;;;;;13.84;100.00;100719.34;105640;1257;60021;-45
2023/05/25 02:07:12;;;;;;;24.10;11.80;;;;;;;13.83;100.00;100719.20;105324;1260;73016;-45
2023/05/25 02:09:40;;;;;;;18.40;12.00;;;;;;;13.83;100.00;100724.77;105526;1254;65220;-45
2023/05/25 02:12:08;;;;;;;17.00;12.20;;;;;;;13.82;100.00;100726.00;105595;1260;70384;-45
2023/05/25 02:14:36;;;;;;;16.70;11.50;;;;;;;13.81;100.00;100728.29;105603;1257;59724;-46
2023/05/25 02:17:04;;;;;;;22.10;12.90;;;;;;;13.81;100.00;100730.55;105532;1261;59654;-45
2023/05/25 02:19:32;;;;;;;19.00;11.50;;;;;;;13.81;100.00;100732.44;105537;1254;73067;-46
2023/05/25 02:22:00;;;;;;;20.60;12.50;;;;;;;13.81;100.00;100732.10;105521;1262;64234;-45
2023/05/25 02:24:27;;;;;;;18.20;11.50;;;;;;;13.82;100.00;100732.77;105605;1258;72657;-45
2023/05/25 02:26:55;;;;;;;20.30;12.20;;;;;;;13.83;100.00;100728.08;105630;1256;61723;-46
2023/05/25 02:29:23;;;;;;;19.50;12.10;;;;;;;13.83;100.00;100726.49;105657;1259;59564;-45
2023/05/25 02:31:51;;;;;;;18.80;11.80;;;;;;;13.83;100.00;100728.55;105612;1260;72311;-46
2023/05/25 02:34:18;;;;;;;17.50;11.20;;;;;;;13.84;100.00;100729.08;105708;1259;64012;-45
2023/05/25 02:36:46;;;;;;;15.60;12.00;;;;;;;13.84;100.00;100734.09;105606;1260;71422;-45
2023/05/25 02:39:13;;;;;;;20.60;12.00;;;;;;;13.83;100.00;100732.90;105644;1256;59760;-45
2023/05/25 02:41:41;;;;;;;24.00;12.40;;;;;;;13.84;100.00;100735.30;105580;1260;59629;-45
2023/05/25 02:44:09;;;;;;;15.90;11.80;;;;;;;13.87;100.00;100732.98;105630;1254;71949;-45
2023/05/25 02:46:37;;;;;;;17.50;11.60;;;;;;;13.89;100.00;100731.35;105658;1255;63924;-45
2023/05/25 02:49:05;;;;;;;21.20;11.40;;;;;;;13.92;100.00;100734.39;105649;1256;72440;-45
2023/05/25 02:51:34;;;;;;;16.10;11.00;;;;;;;13.97;100.00;100732.52;105541;1257;60505;-45
2023/05/25 02:54:03;;;;;;;20.00;11.10;;;;;;;14.01;100.00;100732.74;105598;1254;59773;-46
2023/05/25 02:56:32;;;;;;;16.80;11.90;;;;;;;14.05;100.00;100735.42;105648;1259;71033;-45
2023/05/25 02:59:00;;;;;;;13.60;11.50;;;;;;;14.09;100.00;100733.23;105585;1255;64091;-45
2023/05/25 03:01:33;;;;;;;13.00;11.30;;;;;;;14.13;100.00;100737.62;105612;1259;71480;-45
2023/05/25 03:04:01;;;;;;;17.50;10.70;;;;;;;14.17;100.00;100733.69;105708;1259;61597;-45
2023/05/25 03:06:35;;;;;;;20.10;11.90;;;;;;;14.21;100.00;100737.02;105691;1254;60007;-45
2023/05/25 03:09:12;;;;;;;21.20;11.60;;;;;;;14.28;100.00;100736.33;105659;1257;72786;-44
2023/05/25 03:11:40;;;;;;;17.90;11.30;;;;;;;14.33;100.00;100733.05;105645;1257;65450;-45
2023/05/25 03:14:12;;;;;;;18.00;11.80;;;;;;;14.38;100.00;100734.28;105682;1253;72681;-45
2023/05/25 03:16:40;;;;;;;19.20;11.20;;;;;;;14.45;100.00;100733.73;105679;1257;60756;-45
2023/05/25 03:19:09;;;;;;;28.70;11.00;;;;;;;14.50;100.00;100740.33;105733;1257;59555;-45
2023/05/25 03:21:37;;;;;;;24.90;11.50;;;;;;;14.54;100.00;100734.86;105660;1253;71939;-45
2023/05/25 03:24:05;;;;;;;32.30;10.50;;;;;;;14.58;100.00;100736.30;105702;1254;65667;-45
2023/05/25 03:26:34;;;;;;;26.50;10.70;;;;;;;14.66;100.00;100734.85;105634;1254;72718;-46
2023/05/25 03:29:02;;;;;;;20.50;10.90;;;;;;;14.73;100.00;100731.55;105684;1253;61629;-45
2023/05/25 03:31:32;;;;;;;33.60;11.90;;;;;;;14.78;100.00;100731.88;105706;1253;60026;-45
2023/05/25 03:34:00;;;;;;;22.90;10.00;;;;;;;14.85;100.00;100735.14;105707;1254;73172;-45
2023/05/25 03:36:29;;;;;;;23.90;11.20;;;;;;;14.92;100.00;100737.02;105658;1256;64065;-46
2023/05/25 03:38:58;;;;;;;23.10;10.80;;;;;;;14.99;100.00;100738.00;105675;1257;72615;-45
2023/05/25 03:41:26;;;;;;;26.20;10.80;;;;;;;15.05;100.00;100740.94;105514;1254;60722;-45
2023/05/25 03:43:54;;;;;;;16.70;10.40;;;;;;;15.12;100.00;100740.37;105636;1259;59662;-45
2023/05/25 03:46:23;;;;;;;24.00;10.70;;;;;;;15.20;100.00;100743.41;105801;1254;71799;-46
2023/05/25 03:48:51;;;;;;;33.80;12.40;;;;;;;15.27;100.00;100742.98;105809;1257;64365;-45
2023/05/25 03:51:19;;;;;;;14.90;10.00;;;;;;;15.36;100.00;100741.66;105649;1254;72713;-46
2023/05/25 03:53:46;;;;;;;15.70;10.20;;;;;;;15.45;100.00;100740.33;105659;1257;60465;-45
2023/05/25 03:56:14;;;;;;;18.20;10.50;;;;;;;15.55;100.00;100739.46;105840;1258;60539;-45
2023/05/25 03:58:42;;;;;;;20.60;10.50;;;;;;;15.66;100.00;100741.87;105891;1257;73794;-46
2023/05/25 04:01:11;;;;;;;18.30;10.10;;;;;;;15.77;100.00;100737.11;105773;1257;63990;-45
2023/05/25 04:03:39;;;;;;;29.10;10.90;;;;;;;15.89;100.00;100744.02;105772;1258;71425;-45
2023/05/25 04:06:07;;;;;;;16.40;9.40;;;;;;;15.99;100.00;100746.98;105818;1253;61708;-44
2023/05/25 04:08:35;;;;;;;24.20;10.00;;;;;;;16.08;100.00;100745.96;105827;1254;60484;-45
2023/05/25 04:11:04;;;;;;;21.50;10.50;;;;;;;16.18;100.00;100745.25;105821;1254;72651;-45
2023/05/25 04:13:35;;;;;;;22.50;11.10;;;;;;;16.29;100.00;100743.47;105774;1257;63930;-45
2023/05/25 04:16:04;;;;;;;18.70;10.40;;;;;;;16.36;100.00;100747.00;105823;1258;70424;-45
2023/05/25 04:18:32;;;;;;;15.70;9.90;;;;;;;16.45;100.00;100754.54;105819;1257;60821;-45
2023/05/25 04:21:00;;;;;;;21.50;9.50;;;;;;;16.52;100.00;100754.61;105665;1252;60370;-46
2023/05/25 04:23:28;;;;;;;19.00;9.70;;;;;;;16.59;100.00;100757.63;105702;1254;72602;-45
2023/05/25 04:25:56;;;;;;;16.90;10.10;;;;;;;16.62;100.00;100758.73;105797;1257;63903;-44
2023/05/25 04:28:24;;;;;;;19.80;9.90;;;;;;;16.67;100.00;100763.94;105699;1253;72588;-46
2023/05/25 04:30:58;;;;;;;17.30;9.90;;;;;;;16.77;100.00;100768.62;105714;1256;61632;-45
2023/05/25 04:33:37;;;;;;;19.20;10.50;;;;;;;16.87;100.00;100774.48;105762;1258;60425;-45
2023/05/25 04:36:16;;;;;;;16.00;9.40;;;;;;;16.99;100.00;100781.20;105786;1254;72754;-45
2023/05/25 04:38:46;;;;;;;15.90;9.10;;;;;;;17.08;100.00;100782.42;105837;1257;63234;-45
2023/05/25 04:41:14;;;;;;;18.30;10.00;;;;;;;17.19;100.00;100789.48;105712;1253;71740;-45
2023/05/25 04:43:49;;;;;;;14.80;9.90;;;;;;;17.24;100.00;100791.87;105648;1254;60559;-45
2023/05/25 04:46:37;;;;;;;13.10;9.10;;;;;;;17.36;100.00;100798.70;105683;1253;60476;-46
2023/05/25 04:49:12;;;;;;;13.20;8.60;;;;;;;17.50;100.00;100806.68;105662;1253;72601;-45
2023/05/25 04:51:40;;;;;;;14.50;9.20;;;;;;;17.61;100.00;100813.56;105703;1253;65178;-45
2023/05/25 04:54:08;;;;;;;15.10;9.20;;;;;;;17.69;100.00;100827.56;105697;1259;71445;-46
2023/05/25 04:56:36;;;;;;;16.20;9.00;;;;;;;17.75;100.00;100836.51;105674;1254;60456;-45
2023/05/25 04:59:05;;;;;;;19.00;8.40;;;;;;;17.83;100.00;100850.15;105705;1252;60505;-46
2023/05/25 05:01:39;;;;;;;17.40;8.70;;;;;;;17.90;100.00;100866.09;105862;1257;72977;-45
2023/05/25 05:04:11;;;;;;;16.00;9.60;;;;;;;17.96;100.00;100878.60;105852;1253;65113;-45
2023/05/25 05:06:39;;;;;;;20.60;9.40;;;;;;;18.03;100.00;100894.20;105858;1257;71412;-44
2023/05/25 05:09:10;;;;;;;16.90;9.30;;;;;;;18.09;100.00;100910.22;105903;1253;60722;-44
2023/05/25 05:11:38;;;;;;;14.40;8.80;;;;;;;18.13;100.00;100932.23;105891;1257;60805;-45
2023/05/25 05:14:07;;;;;;;26.90;8.90;;;;;;;18.14;100.00;100956.96;105870;1253;72647;-45
2023/05/25 05:16:36;;;;;;;21.50;8.60;;;;;;;18.20;100.00;100979.77;105862;1257;65374;-46
2023/05/25 05:19:04;;;;;;;16.00;9.30;;;;;;;18.24;100.00;101007.52;105878;1253;72605;-45
2023/05/25 05:21:32;;;;;;;16.40;9.80;;;;;;;18.30;100.00;101036.13;105696;1253;60576;-45
2023/05/25 05:24:01;;;;;;;17.60;9.10;;;;;;;18.36;100.00;101065.21;105872;1254;60377;-46
2023/05/25 05:26:29;;;;;;;17.90;8.70;;;;;;;18.42;100.00;101089.45;105690;1256;72541;-46
2023/05/25 05:29:11;;;;;;;27.00;9.20;;;;;;;18.49;100.00;101119.39;105718;1258;64530;-46
2023/05/25 05:31:39;;;;;;;13.50;8.70;;;;;;;18.55;100.00;101139.05;105886;1252;72647;-46
2023/05/25 05:34:07;;;;;;;16.80;8.50;;;;;;;18.67;100.00;101161.31;105717;1257;61642;-46
2023/05/25 05:36:36;;;;;;;22.20;9.90;;;;;;;18.75;100.00;101178.29;105860;1253;60365;-46
2023/05/25 05:39:22;;;;;;;17.10;9.50;;;;;;;18.80;100.00;101200.42;105860;1253;73893;-44
2023/05/25 05:41:50;;;;;;;18.50;8.70;;;;;;;18.81;100.00;101211.06;105688;1258;65265;-44
2023/05/25 05:44:20;;;;;;;32.80;9.50;;;;;;;18.78;100.00;101216.60;105899;1257;71567;-45
2023/05/25 05:46:47;;;;;;;27.50;9.60;;;;;;;18.78;100.00;101216.44;105658;1253;61719;-44
2023/05/25 05:49:15;;;;;;;18.60;8.60;;;;;;;18.78;100.00;101213.64;105675;1253;60361;-44
2023/05/25 05:51:43;;;;;;;27.70;8.50;;;;;;;18.84;100.00;101209.02;105853;1253;73882;-45
2023/05/25 05:54:10;;;;;;;20.40;9.10;;;;;;;18.89;100.00;101205.30;105863;1257;65746;-45
2023/05/25 05:56:39;;;;;;;18.80;9.10;;;;;;;18.99;100.00;101197.60;105684;1258;72661;-45
2023/05/25 05:59:07;;;;;;;17.70;8.90;;;;;;;19.13;100.00;101188.27;105892;1253;60511;-45
2023/05/25 06:01:35;;;;;;;16.50;7.80;;;;;;;19.27;100.00;101185.21;105655;1251;60560;-45
2023/05/25 06:04:06;;;;;;;13.00;7.90;;;;;;;19.39;100.00;101177.88;105711;1252;72622;-45
2023/05/25 06:06:36;;;;;;;11.40;7.50;;;;;;;19.48;100.00;101158.24;105852;1253;64339;-45
2023/05/25 06:09:05;;;;;;;20.80;8.80;;;;;;;19.57;100.00;101136.80;105723;1257;70411;-45
2023/05/25 06:11:36;;;;;;;14.90;8.10;;;;;;;19.71;100.00;101113.94;105890;1251;60427;-45
2023/05/25 06:14:05;;;;;;;14.10;7.20;;;;;;;19.87;100.00;101092.56;105768;1251;60602;-45
2023/05/25 06:16:33;;;;;;;15.60;6.80;;;;;;;20.00;100.00;101060.43;105693;1252;73820;-45
2023/05/25 06:19:01;;;;;;;17.40;6.40;;;;;;;20.11;100.00;101016.50;105834;1256;64103;-45
2023/05/25 06:21:29;;;;;;;14.70;7.30;;;;;;;20.20;100.00;100984.67;105716;1252;71400;-46
2023/05/25 06:23:57;;;;;;;17.10;7.40;;;;;;;20.28;100.00;100934.51;105850;1253;60462;-45
2023/05/25 06:26:25;;;;;;;14.20;6.90;;;;;;;20.41;100.00;100892.14;105849;1254;60358;-45
2023/05/25 06:28:56;;;;;;;14.40;6.50;;;;;;;20.57;100.00;100848.34;105904;1253;72862;-45
2023/05/25 06:31:24;;;;;;;8.30;6.20;;;;;;;20.72;100.00;100802.27;105709;1258;64318;-45
2023/05/25 06:33:52;;;;;;;10.90;6.30;;;;;;;20.87;100.00;100740.61;105694;1253;71410;-46
2023/05/25 06:36:20;;;;;;;13.50;6.20;;;;;;;20.99;100.00;100682.26;105836;1255;60517;-45
2023/05/25 06:38:48;;;;;;;19.10;6.70;;;;;;;20.93;100.00;100590.48;105649;1253;60450;-45
2023/05/25 06:41:17;;;;;;;14.20;7.00;;;;;;;20.87;100.00;100551.77;105775;1257;72214;-46
2023/05/25 06:43:45;;;;;;;11.10;6.50;;;;;;;20.74;100.00;100530.05;105752;1251;64244;-45
2023/05/25 06:46:25;;;;;;;17.00;6.70;;;;;;;20.69;100.00;100560.00;105889;1254;70592;-45
2023/05/25 06:48:53;;;;;;;10.50;6.00;;;;;;;20.80;100.00;100591.64;105892;1254;60590;-46
2023/05/25 06:51:21;;;;;;;15.40;5.30;;;;;;;20.94;100.00;100598.52;105909;1254;60466;-46
2023/05/25 06:53:49;;;;;;;11.50;5.50;;;;;;;21.03;100.00;100577.14;105901;1256;73826;-46
2023/05/25 06:56:16;;;;;;;13.50;5.10;;;;;;;21.06;100.00;100557.11;105946;1251;64081;-46
2023/05/25 06:58:45;;;;;;;11.00;5.60;;;;;;;20.95;100.00;100511.13;105901;1257;73200;-46
2023/05/25 07:01:13;;;;;;;15.10;5.20;;;;;;;20.82;100.00;100506.12;105863;1257;60934;-46
2023/05/25 07:03:41;;;;;;;9.20;4.90;;;;;;;20.79;100.00;100520.14;105895;1251;60370;-46
2023/05/25 07:06:10;;;;;;;7.00;4.90;;;;;;;20.76;100.00;100532.77;105928;1251;72562;-46
2023/05/25 07:08:38;;;;;;;12.80;5.30;;;;;;;20.76;100.00;100523.11;105878;1251;64498;-45
2023/05/25 07:11:09;;;;;;;14.70;5.40;;;;;;;20.78;100.00;100521.59;105873;1257;72629;-46
2023/05/25 07:13:36;;;;;;;9.20;5.10;;;;;;;20.84;100.00;100526.18;105886;1253;60682;-46
2023/05/25 07:16:04;;;;;;;12.60;5.30;;;;;;;20.87;100.00;100516.02;105938;1256;60357;-46
2023/05/25 07:18:32;;;;;;;14.20;5.30;;;;;;;20.87;100.00;100508.80;105919;1251;72571;-46
2023/05/25 07:21:00;;;;;;;14.80;5.10;;;;;;;20.83;100.00;100509.03;105897;1252;65198;-45
2023/05/25 07:23:27;;;;;;;9.00;4.40;;;;;;;20.81;100.00;100527.54;105888;1251;72653;-45
2023/05/25 07:25:54;;;;;;;10.60;5.10;;;;;;;20.82;100.00;100527.69;105864;1251;60720;-45
2023/05/25 07:28:22;;;;;;;7.80;4.30;;;;;;;20.78;100.00;100516.65;105877;1253;60377;-45
2023/05/25 07:30:50;;;;;;;11.30;4.70;;;;;;;20.77;100.00;100521.66;105869;1257;71953;-45
2023/05/25 07:33:17;;;;;;;7.30;4.30;;;;;;;20.75;100.00;100522.13;105914;1251;64329;-45
2023/05/25 07:35:45;;;;;;;15.40;5.90;;;;;;;20.63;100.00;100509.51;105900;1254;71672;-45
2023/05/25 07:38:13;;;;;;;9.70;5.20;;;;;;;20.55;100.00;100519.98;105884;1256;60542;-45
2023/05/25 07:40:41;;;;;;;12.90;5.20;;;;;;;20.54;100.00;100539.15;105841;1253;60482;-46
2023/05/25 07:43:08;;;;;;;9.90;4.60;;;;;;;20.57;100.00;100559.46;105848;1252;71962;-45
2023/05/25 07:45:36;;;;;;;12.80;5.00;;;;;;;20.57;100.00;100565.26;105865;1253;65373;-45
2023/05/25 07:48:05;;;;;;;14.50;5.40;;;;;;;20.51;100.00;100572.44;105851;1252;71445;-46
2023/05/25 07:50:34;;;;;;;12.20;4.80;;;;;;;20.45;100.00;100598.02;105876;1254;60553;-44
2023/05/25 07:53:01;;;;;;;11.30;5.30;;;;;;;20.49;100.00;100616.34;105854;1253;60495;-44
2023/05/25 07:55:29;;;;;;;11.20;5.20;;;;;;;20.55;100.00;100630.38;105840;1257;73850;-44
2023/05/25 07:57:56;;;;;;;10.90;4.50;;;;;;;20.57;100.00;100626.08;105834;1257;65441;-45
2023/05/25 08:00:24;;;;;;;9.90;5.20;;;;;;;20.53;100.00;100604.55;105829;1254;71756;-44
2023/05/25 08:02:51;;;;;;;11.40;4.70;;;;;;;20.47;100.00;100597.18;105833;1253;60408;-44
2023/05/25 08:05:20;;;;;;;8.50;4.30;;;;;;;20.47;100.00;100596.85;105914;1253;60384;-45
2023/05/25 08:07:47;;;;;;;12.30;4.90;;;;;;;20.49;100.00;100596.17;105860;1253;74210;-45
2023/05/25 08:10:15;;;;;;;11.90;5.00;;;;;;;20.51;100.00;100585.59;105848;1257;64159;-45
2023/05/25 08:12:43;;;;;;;14.20;4.70;;;;;;;20.53;100.00;100582.85;105815;1254;72588;-45
2023/05/25 08:15:16;;;;;;;11.40;4.70;;;;;;;20.63;100.00;100595.25;105824;1257;60582;-45
2023/05/25 08:17:44;;;;;;;12.70;4.80;;;;;;;20.78;100.00;100601.75;105833;1251;60418;-45
2023/05/25 08:20:12;;;;;;;11.80;5.10;;;;;;;20.96;100.00;100587.17;105879;1252;73777;-45
2023/05/25 08:22:41;;;;;;;9.30;4.70;;;;;;;21.10;100.00;100560.58;105898;1258;64044;-44
2023/05/25 08:25:10;;;;;;;15.70;5.40;;;;;;;21.21;100.00;100551.61;105861;1257;72597;-44
2023/05/25 08:27:37;;;;;;;7.20;4.60;;;;;;;21.35;100.00;100539.20;105873;1257;60553;-44
2023/05/25 08:30:07;;;;;;;8.20;4.60;;;;;;;21.45;100.00;100519.66;105886;1251;60457;-44
2023/05/25 08:32:35;;;;;;;11.50;4.80;;;;;;;21.54;100.00;100511.15;105885;1257;73860;-44
2023/05/25 08:35:03;;;;;;;7.10;4.90;;;;;;;21.70;100.00;100510.50;105873;1257;65615;-44
2023/05/25 08:37:31;;;;;;;12.30;4.80;;;;;;;21.79;100.00;100475.16;105842;1257;71379;-45
2023/05/25 08:40:01;;;;;;;10.40;5.00;;;;;;;21.72;100.00;100454.95;105904;1256;60502;-46
2023/05/25 08:42:29;;;;;;;12.70;5.00;;;;;;;21.64;100.00;100467.91;105951;1251;60504;-44
2023/05/25 08:44:57;;;;;;;9.40;4.50;;;;;;;21.59;100.00;100486.96;105970;1251;73474;-46
2023/05/25 08:47:25;;;;;;;10.50;4.70;;;;;;;21.58;100.00;100493.70;105948;1251;64073;-46
2023/05/25 08:49:53;;;;;;;14.50;5.80;;;;;;;21.46;100.00;100479.35;105704;1251;71476;-46
2023/05/25 08:52:21;;;;;;;16.30;5.40;;;;;;;21.45;100.00;100486.81;105723;1257;60551;-45
2023/05/25 08:54:50;;;;;;;8.20;4.80;;;;;;;21.59;100.00;100497.02;105929;1256;60520;-44
2023/05/25 08:57:37;;;;;;;8.10;4.20;;;;;;;21.70;100.00;100486.28;105923;1255;73892;-45
2023/05/25 09:00:11;;;;;;;9.70;4.40;;;;;;;21.96;100.00;100472.52;105952;1251;64101;-45
2023/05/25 09:02:47;;;;;;;9.20;3.90;;;;;;;22.22;100.00;100451.09;105902;1254;71420;-45
2023/05/25 09:05:16;;;;;;;15.50;4.00;;;;;;;22.31;100.00;100444.88;105908;1256;60533;-45
2023/05/25 09:07:44;;;;;;;7.70;3.90;;;;;;;22.26;100.00;100449.98;105988;1251;60557;-45
2023/05/25 09:10:11;;;;;;;6.00;3.90;;;;;;;22.27;100.00;100457.98;105680;1251;73830;-45
2023/05/25 09:12:39;;;;;;;23.90;4.30;;;;;;;22.37;100.00;100462.22;105694;1257;64090;-46
2023/05/25 09:15:09;;;;;;;8.70;3.60;;;;;;;22.56;100.00;100464.33;105692;1257;71832;-45
2023/05/25 09:17:37;;;;;;;10.80;3.60;;;;;;;22.69;100.00;100474.15;105944;1254;60578;-45
2023/05/25 09:20:07;;;;;;;8.20;4.00;;;;;;;22.74;100.00;100495.98;105923;1257;60364;-45
2023/05/25 09:22:35;;;;;;;8.40;3.80;;;;;;;22.86;100.00;100500.60;105888;1254;73832;-46
2023/05/25 09:25:05;;;;;;;8.00;3.60;;;;;;;23.03;100.00;100514.22;105894;1251;65322;-45
2023/05/25 09:27:36;;;;;;;26.60;3.80;;;;;;;23.13;100.00;100536.04;106001;1256;72649;-46
2023/05/25 09:30:05;;;;;;;6.40;3.30;;;;;;;23.38;100.00;100537.81;105628;1253;60440;-46
2023/05/25 09:32:33;;;;;;;9.40;3.70;;;;;;;23.71;100.00;100549.20;105960;1256;60555;-45
2023/05/25 09:35:13;;;;;;;7.50;4.40;;;;;;;23.92;100.00;100572.52;106020;1251;72567;-46
2023/05/25 09:37:42;;;;;;;9.80;3.70;;;;;;;23.92;100.00;100602.98;105928;1251;63699;-46
2023/05/25 09:40:10;;;;;;;10.80;3.60;;;;;;;23.95;100.00;100604.75;105892;1256;71817;-45
2023/05/25 09:42:38;;;;;;;7.40;3.90;;;;;;;24.08;100.00;100610.20;105692;1252;60525;-45
2023/05/25 09:45:07;;;;;;;5.80;3.20;;;;;;;24.20;100.00;100611.41;105885;1251;60525;-46
2023/05/25 09:47:35;;;;;;;5.50;3.80;;;;;;;24.28;100.00;100615.77;105906;1256;73768;-46
2023/05/25 09:50:03;;;;;;;9.00;4.10;;;;;;;24.23;100.00;100617.39;105879;1257;63977;-47
2023/05/25 09:52:31;;;;;;;6.30;3.60;;;;;;;24.12;100.00;100620.00;105741;1259;72736;-44
2023/05/25 09:54:59;;;;;;;5.30;3.20;;;;;;;23.85;100.00;100624.69;105843;1257;61748;-46
2023/05/25 09:57:26;;;;;;;6.40;3.30;;;;;;;23.61;100.00;100628.14;105674;1261;60417;-46
2023/05/25 09:59:54;;;;;;;13.30;4.30;;;;;;;23.57;100.00;100617.52;105862;1257;73883;-46
2023/05/25 10:02:22;;;;;;;11.10;4.30;;;;;;;23.52;100.00;100588.23;105678;1259;63947;-46
2023/05/25 10:04:50;;;;;;;11.60;4.00;;;;;;;23.36;100.00;100542.19;105852;1257;71476;-46
2023/05/25 10:07:18;;;;;;;6.20;4.00;;;;;;;23.02;100.00;100530.43;105898;1257;60641;-45
2023/05/25 10:09:46;;;;;;;10.00;4.60;;;;;;;22.66;100.00;100511.45;105693;1258;60604;-46
2023/05/25 10:12:17;;;;;;;11.20;4.70;;;;;;;22.27;100.00;100497.71;105745;1253;73795;-46
2023/05/25 10:14:45;;;;;;;9.40;4.40;;;;;;;21.99;100.00;100481.60;105897;1253;65231;-45
2023/05/25 10:17:12;;;;;;;9.60;4.90;;;;;;;21.82;100.00;100476.08;105663;1258;71747;-45
2023/05/25 10:19:53;;;;;;;10.20;5.20;;;;;;;21.67;100.00;100473.52;105748;1258;60583;-45
2023/05/25 10:22:28;;;;;;;10.70;4.60;;;;;;;21.68;100.00;100474.30;105901;1257;60376;-45
2023/05/25 10:25:07;;;;;;;10.90;3.90;;;;;;;21.74;100.00;100477.45;105857;1257;73793;-45
2023/05/25 10:27:39;;;;;;;12.50;4.10;;;;;;;21.76;100.00;100467.30;105922;1258;64142;-44
2023/05/25 10:30:10;;;;;;;6.60;3.70;;;;;;;21.79;100.00;100459.38;105912;1252;71222;-44
2023/05/25 10:32:38;;;;;;;9.10;3.90;;;;;;;21.95;100.00;100460.61;105870;1253;61719;-45
2023/05/25 10:35:06;;;;;;;8.60;4.10;;;;;;;22.11;100.00;100444.29;105811;1253;60359;-45
2023/05/25 10:37:34;;;;;;;8.70;3.50;;;;;;;22.27;100.00;100428.09;105804;1257;73797;-44
2023/05/25 10:40:03;;;;;;;7.90;4.40;;;;;;;22.43;100.00;100427.89;105865;1253;65694;-46
2023/05/25 10:42:30;;;;;;;7.60;3.10;;;;;;;22.67;100.00;100425.21;105844;1251;72677;-46
2023/05/25 10:44:58;;;;;;;10.60;4.10;;;;;;;22.98;100.00;100437.46;105864;1253;60438;-45
2023/05/25 10:47:26;;;;;;;8.70;3.80;;;;;;;23.26;100.00;100457.70;105851;1252;60573;-47
2023/05/25 10:49:56;;;;;;;7.10;4.10;;;;;;;23.31;100.00;100484.09;105700;1253;72659;-46
2023/05/25 10:52:28;;;;;;;8.90;4.50;;;;;;;23.21;100.00;100498.83;105894;1252;63927;-46
2023/05/25 10:55:05;;;;;;;7.40;4.10;;;;;;;23.37;100.00;100509.02;105915;1257;71423;-46
2023/05/25 10:57:33;;;;;;;8.20;3.70;;;;;;;23.68;100.00;100516.29;105888;1254;60445;-45
2023/05/25 11:00:06;;;;;;;6.50;3.90;;;;;;;23.91;100.00;100528.25;105890;1252;60358;-46
2023/05/25 11:02:50;;;;;;;12.80;4.10;;;;;;;23.89;100.00;100545.63;105892;1251;72608;-46
2023/05/25 11:05:30;;;;;;;8.40;4.20;;;;;;;23.91;100.00;100543.69;105879;1253;63758;-46
2023/05/25 11:07:58;;;;;;;14.10;4.50;;;;;;;24.32;100.00;100533.53;105851;1259;72680;-46
2023/05/25 11:10:47;;;;;;;12.60;4.60;;;;;;;24.50;100.00;100551.05;105874;1256;60995;-44